Hamada, Japan

2:33 AM JST on October 02, 2014 (GMT +0900)
Iwakuni Marine Corps Air Station | Change Station
CLOSE
Current Station
Airport
Location: Iwakuni MCAS,
Elevation: 7 ft
Nearby Weather Stations

Elev 7 ft 34.14 °N, 132.24 °E | Updated 38 minutes ago

Overcast
Overcast
72 °F
Feels Like 72 °F
N
5
Wind Variable Wind from West

Today
High -- | Low -- °F
--% Chance of Precip.
Yesterday
High -- | Low -- °F
Precip. -- in
6:06 AM 5:55 PM
Waxing Crescent, 49% visible
Pressure 29.92 in
Visibility 6.2 miles
Clouds Few 3000 ft
Mostly Cloudy 5000 ft
Overcast 10000 ft
Dew Point 63 °F
Humidity 73%
Rainfall 0.00 in
Snow Depth Not available.
UV 0 out of 12
Pollen Not available.
Air Quality Not available.
Flu Activity Not available.
METAR RJOI 011655Z 27004KT 9999 FEW030 BKN050 OVC100 22/17 A2992 RMK SLP131 T02220172

More Conditions Fewer Conditions

Pressure 29.92 in
Visibility 6.2 miles
Clouds Few 3000 ft
Mostly Cloudy 5000 ft
Overcast 10000 ft
Dew Point 63 °F
Humidity 73%
Rainfall 0.00 in
Snow Depth Not available.
UV 0 out of 12
Pollen Not available.
Air Quality Not available.
Flu Activity Not available.
METAR RJOI 011655Z 27004KT 9999 FEW030 BKN050 OVC100 22/17 A2992 RMK SLP131 T02220172

More Conditions Fewer Conditions

10-Day Weather Forecast

Almanac

Astronomy

Oct. 02, 2014 Rise Set
Actual Time 6:06 AM JST 5:55 PM JST
Civil Twilight 5:41 AM JST 6:20 PM JST
Nautical Twilight 5:12 AM JST 6:49 PM JST
Astronomical Twilight 4:42 AM JST 7:19 PM JST
Moon 1:17 PM JST (10/2) No Moon Set
Length of Visible Light 12h 38m
Length of Day
11h 48m
Tomorrow will be 2m 10s shorter.
Waxing Crescent, 49% of the Moon is Illuminated
Oct 1
Waxing Crescent
Oct 1
First Quarter
Oct 8
Full
Oct 15
Last Quarter
Oct 23
New

Yesterday's Extremes

Country Highs Country Lows

Community

WunderPhotos

Upload Photos

1,757,988 photos uploaded!

WunderBlogs® & News

By Dr. Jeff Masters
Director of Meteorology, Weather Underground
By Kari Strenfel
Meteorologist, Weather Underground
By Christopher C. Burt
Weather Historian, Weather Underground
October 1, 2014
October 1, 2014
October 1, 2014

Nearby

Snow Depth

Not available.

Earthquake Activity

City Distance Mag. Time & Date
No recent earthquake activity has been reported nearby.
Minimum magnitude displayed is 2.5.

Coastal Water Temperatures

Place Temperature
No Stations Reporting

Nearby Weather Stations